sensor_id;sensor_type;location;lat;lon;timestamp;P1;durP1;ratioP1;P2;durP2;ratioP2
40122;SDS011;25832;45.490;4.912;2022-12-18T00:00:39;67.38;;;30.08;;
40122;SDS011;25832;45.490;4.912;2022-12-18T00:03:08;72.40;;;29.73;;
40122;SDS011;25832;45.490;4.912;2022-12-18T00:05:34;60.05;;;28.25;;
40122;SDS011;25832;45.490;4.912;2022-12-18T00:08:00;70.35;;;31.08;;
40122;SDS011;25832;45.490;4.912;2022-12-18T00:10:27;137.18;;;59.90;;
40122;SDS011;25832;45.490;4.912;2022-12-18T00:12:53;98.68;;;42.67;;
40122;SDS011;25832;45.490;4.912;2022-12-18T00:15:19;77.05;;;30.40;;
40122;SDS011;25832;45.490;4.912;2022-12-18T00:17:45;68.75;;;31.52;;
40122;SDS011;25832;45.490;4.912;2022-12-18T00:20:10;85.38;;;33.92;;
40122;SDS011;25832;45.490;4.912;2022-12-18T00:22:36;122.38;;;48.83;;
40122;SDS011;25832;45.490;4.912;2022-12-18T00:25:02;74.85;;;32.67;;
40122;SDS011;25832;45.490;4.912;2022-12-18T00:27:28;84.53;;;34.67;;
40122;SDS011;25832;45.490;4.912;2022-12-18T00:29:54;195.40;;;85.72;;
40122;SDS011;25832;45.490;4.912;2022-12-18T00:32:19;123.45;;;55.35;;
40122;SDS011;25832;45.490;4.912;2022-12-18T00:34:45;75.53;;;33.38;;
40122;SDS011;25832;45.490;4.912;2022-12-18T00:37:10;67.55;;;31.23;;
40122;SDS011;25832;45.490;4.912;2022-12-18T00:39:36;102.95;;;46.65;;
40122;SDS011;25832;45.490;4.912;2022-12-18T00:42:02;91.25;;;41.78;;
40122;SDS011;25832;45.490;4.912;2022-12-18T00:44:46;69.88;;;30.02;;
40122;SDS011;25832;45.490;4.912;2022-12-18T00:47:12;72.70;;;32.53;;
40122;SDS011;25832;45.490;4.912;2022-12-18T00:49:37;62.65;;;27.63;;
40122;SDS011;25832;45.490;4.912;2022-12-18T00:52:03;67.30;;;26.67;;
40122;SDS011;25832;45.490;4.912;2022-12-18T00:54:29;69.28;;;28.55;;
40122;SDS011;25832;45.490;4.912;2022-12-18T00:56:55;60.80;;;28.38;;
40122;SDS011;25832;45.490;4.912;2022-12-18T00:59:20;55.67;;;26.05;;
40122;SDS011;25832;45.490;4.912;2022-12-18T01:01:46;54.45;;;25.77;;
40122;SDS011;25832;45.490;4.912;2022-12-18T01:04:12;162.23;;;83.47;;
40122;SDS011;25832;45.490;4.912;2022-12-18T01:06:38;61.40;;;27.90;;
40122;SDS011;25832;45.490;4.912;2022-12-18T01:09:04;72.85;;;30.92;;
40122;SDS011;25832;45.490;4.912;2022-12-18T01:11:30;77.18;;;39.47;;
40122;SDS011;25832;45.490;4.912;2022-12-18T01:13:56;54.78;;;21.63;;
40122;SDS011;25832;45.490;4.912;2022-12-18T01:16:24;54.35;;;23.35;;
40122;SDS011;25832;45.490;4.912;2022-12-18T01:18:53;59.45;;;27.50;;
40122;SDS011;25832;45.490;4.912;2022-12-18T01:21:19;33.63;;;15.77;;
40122;SDS011;25832;45.490;4.912;2022-12-18T01:23:46;53.17;;;24.55;;
40122;SDS011;25832;45.490;4.912;2022-12-18T01:26:13;52.70;;;24.95;;
40122;SDS011;25832;45.490;4.912;2022-12-18T01:28:40;49.70;;;22.85;;
40122;SDS011;25832;45.490;4.912;2022-12-18T01:31:13;55.05;;;24.40;;
40122;SDS011;25832;45.490;4.912;2022-12-18T01:33:44;59.15;;;29.38;;
40122;SDS011;25832;45.490;4.912;2022-12-18T01:36:17;66.83;;;35.00;;
40122;SDS011;25832;45.490;4.912;2022-12-18T01:38:46;52.70;;;24.20;;
40122;SDS011;25832;45.490;4.912;2022-12-18T01:41:12;51.83;;;23.17;;
40122;SDS011;25832;45.490;4.912;2022-12-18T01:46:22;49.38;;;22.48;;
40122;SDS011;25832;45.490;4.912;2022-12-18T01:48:50;53.88;;;25.80;;
40122;SDS011;25832;45.490;4.912;2022-12-18T01:51:24;55.72;;;25.05;;
40122;SDS011;25832;45.490;4.912;2022-12-18T01:53:52;82.47;;;34.47;;
40122;SDS011;25832;45.490;4.912;2022-12-18T01:56:18;138.05;;;61.33;;
40122;SDS011;25832;45.490;4.912;2022-12-18T01:58:48;63.58;;;24.77;;
40122;SDS011;25832;45.490;4.912;2022-12-18T02:01:15;89.50;;;37.10;;
40122;SDS011;25832;45.490;4.912;2022-12-18T02:03:42;74.25;;;35.20;;
40122;SDS011;25832;45.490;4.912;2022-12-18T02:11:47;138.95;;;60.00;;
40122;SDS011;25832;45.490;4.912;2022-12-18T02:17:05;59.58;;;25.10;;
40122;SDS011;25832;45.490;4.912;2022-12-18T02:27:46;64.25;;;26.58;;
40122;SDS011;25832;45.490;4.912;2022-12-18T02:30:14;81.00;;;33.00;;
40122;SDS011;25832;45.490;4.912;2022-12-18T02:32:42;63.03;;;25.83;;
40122;SDS011;25832;45.490;4.912;2022-12-18T02:35:13;63.55;;;25.10;;
40122;SDS011;25832;45.490;4.912;2022-12-18T02:37:43;58.88;;;25.00;;
40122;SDS011;25832;45.490;4.912;2022-12-18T02:40:11;53.38;;;25.38;;
40122;SDS011;25832;45.490;4.912;2022-12-18T02:42:40;56.22;;;23.55;;
40122;SDS011;25832;45.490;4.912;2022-12-18T02:45:06;60.60;;;26.80;;
40122;SDS011;25832;45.490;4.912;2022-12-18T02:47:33;56.28;;;25.92;;
40122;SDS011;25832;45.490;4.912;2022-12-18T02:58:59;74.57;;;35.17;;
40122;SDS011;25832;45.490;4.912;2022-12-18T03:01:30;74.88;;;34.95;;
40122;SDS011;25832;45.490;4.912;2022-12-18T03:04:05;53.10;;;25.52;;
40122;SDS011;25832;45.490;4.912;2022-12-18T03:06:40;54.95;;;25.10;;
40122;SDS011;25832;45.490;4.912;2022-12-18T03:09:10;68.50;;;30.70;;
40122;SDS011;25832;45.490;4.912;2022-12-18T03:11:41;218.60;;;81.00;;
40122;SDS011;25832;45.490;4.912;2022-12-18T03:14:30;92.85;;;39.20;;
40122;SDS011;25832;45.490;4.912;2022-12-18T03:16:59;49.30;;;22.05;;
40122;SDS011;25832;45.490;4.912;2022-12-18T03:19:28;104.60;;;47.17;;
40122;SDS011;25832;45.490;4.912;2022-12-18T03:21:56;64.00;;;28.60;;
40122;SDS011;25832;45.490;4.912;2022-12-18T03:24:26;74.38;;;33.15;;
40122;SDS011;25832;45.490;4.912;2022-12-18T03:26:55;109.40;;;49.28;;
40122;SDS011;25832;45.490;4.912;2022-12-18T03:29:42;69.40;;;34.03;;
40122;SDS011;25832;45.490;4.912;2022-12-18T03:32:24;63.00;;;26.13;;
40122;SDS011;25832;45.490;4.912;2022-12-18T03:34:55;94.90;;;54.33;;
40122;SDS011;25832;45.490;4.912;2022-12-18T03:37:26;81.03;;;40.85;;
40122;SDS011;25832;45.490;4.912;2022-12-18T03:39:51;130.13;;;69.32;;
40122;SDS011;25832;45.490;4.912;2022-12-18T03:42:28;68.80;;;31.02;;
40122;SDS011;25832;45.490;4.912;2022-12-18T03:45:12;61.45;;;28.05;;
40122;SDS011;25832;45.490;4.912;2022-12-18T03:50:31;54.10;;;26.08;;
40122;SDS011;25832;45.490;4.912;2022-12-18T03:55:53;80.53;;;41.03;;
40122;SDS011;25832;45.490;4.912;2022-12-18T03:58:22;83.05;;;42.17;;
40122;SDS011;25832;45.490;4.912;2022-12-18T04:00:49;61.85;;;33.28;;
40122;SDS011;25832;45.490;4.912;2022-12-18T04:03:18;65.93;;;31.85;;
40122;SDS011;25832;45.490;4.912;2022-12-18T04:05:46;63.13;;;30.25;;
40122;SDS011;25832;45.490;4.912;2022-12-18T04:08:15;61.95;;;27.42;;
40122;SDS011;25832;45.490;4.912;2022-12-18T04:10:41;60.35;;;25.17;;
40122;SDS011;25832;45.490;4.912;2022-12-18T04:13:07;57.55;;;25.17;;
40122;SDS011;25832;45.490;4.912;2022-12-18T04:15:34;70.55;;;32.65;;
40122;SDS011;25832;45.490;4.912;2022-12-18T04:18:01;65.72;;;30.85;;
40122;SDS011;25832;45.490;4.912;2022-12-18T04:20:27;93.78;;;46.80;;
40122;SDS011;25832;45.490;4.912;2022-12-18T04:22:53;69.65;;;32.42;;
40122;SDS011;25832;45.490;4.912;2022-12-18T04:25:19;79.93;;;42.35;;
40122;SDS011;25832;45.490;4.912;2022-12-18T04:27:45;85.30;;;43.40;;
40122;SDS011;25832;45.490;4.912;2022-12-18T04:30:10;79.53;;;41.17;;
40122;SDS011;25832;45.490;4.912;2022-12-18T04:32:36;65.50;;;28.52;;
40122;SDS011;25832;45.490;4.912;2022-12-18T04:35:02;87.00;;;42.10;;
40122;SDS011;25832;45.490;4.912;2022-12-18T04:37:29;62.70;;;26.10;;
40122;SDS011;25832;45.490;4.912;2022-12-18T04:39:55;56.25;;;25.60;;
40122;SDS011;25832;45.490;4.912;2022-12-18T04:42:21;75.50;;;33.03;;
40122;SDS011;25832;45.490;4.912;2022-12-18T04:44:46;123.45;;;65.47;;
40122;SDS011;25832;45.490;4.912;2022-12-18T04:47:12;126.47;;;67.78;;
40122;SDS011;25832;45.490;4.912;2022-12-18T04:49:38;110.47;;;61.10;;
40122;SDS011;25832;45.490;4.912;2022-12-18T04:52:03;88.53;;;43.85;;
40122;SDS011;25832;45.490;4.912;2022-12-18T04:54:32;93.25;;;41.38;;
40122;SDS011;25832;45.490;4.912;2022-12-18T04:56:57;56.13;;;28.00;;
40122;SDS011;25832;45.490;4.912;2022-12-18T04:59:23;106.63;;;53.30;;
40122;SDS011;25832;45.490;4.912;2022-12-18T05:01:48;116.20;;;57.95;;
40122;SDS011;25832;45.490;4.912;2022-12-18T05:04:14;87.10;;;47.20;;
40122;SDS011;25832;45.490;4.912;2022-12-18T05:06:40;127.82;;;64.78;;
40122;SDS011;25832;45.490;4.912;2022-12-18T05:09:05;70.75;;;34.17;;
40122;SDS011;25832;45.490;4.912;2022-12-18T05:11:31;178.20;;;89.13;;
40122;SDS011;25832;45.490;4.912;2022-12-18T05:13:57;64.80;;;31.15;;
40122;SDS011;25832;45.490;4.912;2022-12-18T05:16:22;82.60;;;36.05;;
40122;SDS011;25832;45.490;4.912;2022-12-18T05:18:48;69.90;;;37.75;;
40122;SDS011;25832;45.490;4.912;2022-12-18T05:21:14;73.10;;;32.97;;
40122;SDS011;25832;45.490;4.912;2022-12-18T05:23:39;78.38;;;37.22;;
40122;SDS011;25832;45.490;4.912;2022-12-18T05:26:05;147.52;;;74.10;;
40122;SDS011;25832;45.490;4.912;2022-12-18T05:28:33;61.10;;;29.92;;
40122;SDS011;25832;45.490;4.912;2022-12-18T05:31:00;86.00;;;42.05;;
40122;SDS011;25832;45.490;4.912;2022-12-18T05:33:29;60.83;;;31.75;;
40122;SDS011;25832;45.490;4.912;2022-12-18T05:35:57;102.73;;;47.07;;
40122;SDS011;25832;45.490;4.912;2022-12-18T05:38:28;66.68;;;31.73;;
40122;SDS011;25832;45.490;4.912;2022-12-18T05:40:55;60.03;;;26.40;;
40122;SDS011;25832;45.490;4.912;2022-12-18T05:43:21;55.33;;;26.45;;
40122;SDS011;25832;45.490;4.912;2022-12-18T05:45:48;62.65;;;29.35;;
40122;SDS011;25832;45.490;4.912;2022-12-18T05:48:14;96.55;;;43.28;;
40122;SDS011;25832;45.490;4.912;2022-12-18T05:50:41;113.22;;;51.25;;
40122;SDS011;25832;45.490;4.912;2022-12-18T05:53:08;107.55;;;51.22;;
40122;SDS011;25832;45.490;4.912;2022-12-18T05:55:37;101.45;;;49.03;;
40122;SDS011;25832;45.490;4.912;2022-12-18T05:58:05;170.00;;;85.72;;
40122;SDS011;25832;45.490;4.912;2022-12-18T06:00:32;80.43;;;38.28;;
40122;SDS011;25832;45.490;4.912;2022-12-18T06:03:00;58.53;;;26.88;;
40122;SDS011;25832;45.490;4.912;2022-12-18T06:05:26;63.15;;;26.52;;
40122;SDS011;25832;45.490;4.912;2022-12-18T06:07:52;80.70;;;36.22;;
40122;SDS011;25832;45.490;4.912;2022-12-18T06:10:18;74.43;;;35.30;;
40122;SDS011;25832;45.490;4.912;2022-12-18T06:12:43;156.55;;;70.72;;
40122;SDS011;25832;45.490;4.912;2022-12-18T06:15:09;153.88;;;71.35;;
40122;SDS011;25832;45.490;4.912;2022-12-18T06:17:35;147.13;;;64.20;;
40122;SDS011;25832;45.490;4.912;2022-12-18T06:20:02;146.40;;;63.35;;
40122;SDS011;25832;45.490;4.912;2022-12-18T06:22:30;75.00;;;36.03;;
40122;SDS011;25832;45.490;4.912;2022-12-18T06:24:56;72.75;;;30.95;;
40122;SDS011;25832;45.490;4.912;2022-12-18T06:27:22;81.25;;;34.30;;
40122;SDS011;25832;45.490;4.912;2022-12-18T06:29:48;61.63;;;29.73;;
40122;SDS011;25832;45.490;4.912;2022-12-18T06:32:13;88.28;;;39.83;;
40122;SDS011;25832;45.490;4.912;2022-12-18T06:34:39;101.85;;;48.90;;
40122;SDS011;25832;45.490;4.912;2022-12-18T06:37:05;71.55;;;33.13;;
40122;SDS011;25832;45.490;4.912;2022-12-18T06:39:30;62.28;;;26.15;;
40122;SDS011;25832;45.490;4.912;2022-12-18T06:41:56;50.47;;;25.48;;
40122;SDS011;25832;45.490;4.912;2022-12-18T06:44:22;57.33;;;24.05;;
40122;SDS011;25832;45.490;4.912;2022-12-18T06:46:47;58.38;;;25.52;;
40122;SDS011;25832;45.490;4.912;2022-12-18T06:49:13;60.05;;;24.48;;
40122;SDS011;25832;45.490;4.912;2022-12-18T06:51:39;58.15;;;24.80;;
40122;SDS011;25832;45.490;4.912;2022-12-18T06:54:04;52.70;;;23.67;;
40122;SDS011;25832;45.490;4.912;2022-12-18T06:56:30;60.95;;;25.52;;
40122;SDS011;25832;45.490;4.912;2022-12-18T06:58:56;49.72;;;23.05;;
40122;SDS011;25832;45.490;4.912;2022-12-18T07:01:22;55.63;;;22.90;;
40122;SDS011;25832;45.490;4.912;2022-12-18T07:03:51;53.08;;;23.92;;
40122;SDS011;25832;45.490;4.912;2022-12-18T07:06:21;49.83;;;22.75;;
40122;SDS011;25832;45.490;4.912;2022-12-18T07:08:49;51.58;;;23.85;;
40122;SDS011;25832;45.490;4.912;2022-12-18T07:11:16;56.95;;;24.63;;
40122;SDS011;25832;45.490;4.912;2022-12-18T07:13:43;47.55;;;22.13;;
40122;SDS011;25832;45.490;4.912;2022-12-18T07:16:11;56.17;;;22.48;;
40122;SDS011;25832;45.490;4.912;2022-12-18T07:18:38;47.28;;;22.63;;
40122;SDS011;25832;45.490;4.912;2022-12-18T07:21:08;54.05;;;24.95;;
40122;SDS011;25832;45.490;4.912;2022-12-18T07:23:36;41.33;;;20.95;;
40122;SDS011;25832;45.490;4.912;2022-12-18T07:26:05;55.58;;;23.60;;
40122;SDS011;25832;45.490;4.912;2022-12-18T07:28:33;52.03;;;21.15;;
40122;SDS011;25832;45.490;4.912;2022-12-18T07:31:06;50.20;;;24.30;;
40122;SDS011;25832;45.490;4.912;2022-12-18T07:33:33;49.15;;;22.38;;
40122;SDS011;25832;45.490;4.912;2022-12-18T07:36:00;52.75;;;21.95;;
40122;SDS011;25832;45.490;4.912;2022-12-18T07:38:29;56.88;;;25.13;;
40122;SDS011;25832;45.490;4.912;2022-12-18T07:41:09;56.10;;;22.67;;
40122;SDS011;25832;45.490;4.912;2022-12-18T07:43:37;56.80;;;24.40;;
40122;SDS011;25832;45.490;4.912;2022-12-18T07:46:03;59.00;;;25.65;;
40122;SDS011;25832;45.490;4.912;2022-12-18T07:48:29;62.53;;;27.00;;
40122;SDS011;25832;45.490;4.912;2022-12-18T07:50:59;67.53;;;27.92;;
40122;SDS011;25832;45.490;4.912;2022-12-18T07:53:26;65.22;;;28.23;;
40122;SDS011;25832;45.490;4.912;2022-12-18T07:55:58;72.38;;;29.10;;
40122;SDS011;25832;45.490;4.912;2022-12-18T07:58:25;71.20;;;30.35;;
40122;SDS011;25832;45.490;4.912;2022-12-18T08:00:51;66.63;;;29.02;;
40122;SDS011;25832;45.490;4.912;2022-12-18T08:03:18;74.53;;;30.02;;
40122;SDS011;25832;45.490;4.912;2022-12-18T08:05:44;156.38;;;63.95;;
40122;SDS011;25832;45.490;4.912;2022-12-18T08:08:10;87.15;;;37.28;;
40122;SDS011;25832;45.490;4.912;2022-12-18T08:10:36;74.10;;;31.65;;
40122;SDS011;25832;45.490;4.912;2022-12-18T08:13:03;112.05;;;45.28;;
40122;SDS011;25832;45.490;4.912;2022-12-18T08:15:28;389.17;;;165.38;;
40122;SDS011;25832;45.490;4.912;2022-12-18T08:17:57;291.70;;;138.40;;
40122;SDS011;25832;45.490;4.912;2022-12-18T08:20:22;109.57;;;51.97;;
40122;SDS011;25832;45.490;4.912;2022-12-18T08:22:48;98.13;;;39.53;;
40122;SDS011;25832;45.490;4.912;2022-12-18T08:25:14;71.85;;;31.58;;
40122;SDS011;25832;45.490;4.912;2022-12-18T08:27:39;436.98;;;213.20;;
40122;SDS011;25832;45.490;4.912;2022-12-18T08:30:05;201.88;;;107.57;;
40122;SDS011;25832;45.490;4.912;2022-12-18T08:32:32;158.45;;;84.35;;
40122;SDS011;25832;45.490;4.912;2022-12-18T08:34:58;231.73;;;119.28;;
40122;SDS011;25832;45.490;4.912;2022-12-18T08:37:24;214.27;;;121.60;;
40122;SDS011;25832;45.490;4.912;2022-12-18T08:39:50;62.30;;;31.48;;
40122;SDS011;25832;45.490;4.912;2022-12-18T08:42:15;227.32;;;145.10;;
40122;SDS011;25832;45.490;4.912;2022-12-18T08:45:00;205.75;;;115.90;;
40122;SDS011;25832;45.490;4.912;2022-12-18T08:47:26;68.80;;;37.20;;
40122;SDS011;25832;45.490;4.912;2022-12-18T08:49:51;96.32;;;53.65;;
40122;SDS011;25832;45.490;4.912;2022-12-18T08:52:17;102.60;;;56.65;;
40122;SDS011;25832;45.490;4.912;2022-12-18T08:54:43;290.95;;;163.23;;
40122;SDS011;25832;45.490;4.912;2022-12-18T08:57:08;249.95;;;139.05;;
40122;SDS011;25832;45.490;4.912;2022-12-18T08:59:34;251.18;;;151.52;;
40122;SDS011;25832;45.490;4.912;2022-12-18T09:02:00;72.18;;;40.60;;
40122;SDS011;25832;45.490;4.912;2022-12-18T09:04:25;52.72;;;30.73;;
40122;SDS011;25832;45.490;4.912;2022-12-18T09:06:51;58.60;;;29.55;;
40122;SDS011;25832;45.490;4.912;2022-12-18T09:09:19;44.42;;;25.42;;
40122;SDS011;25832;45.490;4.912;2022-12-18T09:11:45;73.05;;;44.55;;
40122;SDS011;25832;45.490;4.912;2022-12-18T09:14:11;71.68;;;47.15;;
40122;SDS011;25832;45.490;4.912;2022-12-18T09:16:36;96.30;;;60.75;;
40122;SDS011;25832;45.490;4.912;2022-12-18T09:19:03;66.28;;;43.55;;
40122;SDS011;25832;45.490;4.912;2022-12-18T09:21:33;63.08;;;40.05;;
40122;SDS011;25832;45.490;4.912;2022-12-18T09:24:03;44.92;;;24.50;;
40122;SDS011;25832;45.490;4.912;2022-12-18T09:26:30;32.95;;;16.98;;
40122;SDS011;25832;45.490;4.912;2022-12-18T09:28:55;34.22;;;19.73;;
40122;SDS011;25832;45.490;4.912;2022-12-18T09:31:22;34.03;;;18.90;;
40122;SDS011;25832;45.490;4.912;2022-12-18T09:33:49;44.25;;;23.50;;
40122;SDS011;25832;45.490;4.912;2022-12-18T09:36:16;41.38;;;20.38;;
40122;SDS011;25832;45.490;4.912;2022-12-18T09:38:42;40.50;;;21.95;;
40122;SDS011;25832;45.490;4.912;2022-12-18T09:44:32;42.85;;;25.23;;
40122;SDS011;25832;45.490;4.912;2022-12-18T09:49:44;34.05;;;15.68;;
40122;SDS011;25832;45.490;4.912;2022-12-18T09:54:39;31.08;;;15.18;;
40122;SDS011;25832;45.490;4.912;2022-12-18T09:57:17;28.08;;;15.90;;
40122;SDS011;25832;45.490;4.912;2022-12-18T09:59:53;35.22;;;16.10;;
40122;SDS011;25832;45.490;4.912;2022-12-18T10:02:52;32.17;;;15.10;;
40122;SDS011;25832;45.490;4.912;2022-12-18T10:08:04;33.03;;;16.42;;
40122;SDS011;25832;45.490;4.912;2022-12-18T10:16:08;33.30;;;14.73;;
40122;SDS011;25832;45.490;4.912;2022-12-18T10:21:30;31.50;;;16.02;;
40122;SDS011;25832;45.490;4.912;2022-12-18T10:29:55;25.63;;;13.23;;
40122;SDS011;25832;45.490;4.912;2022-12-18T10:32:26;26.20;;;13.45;;
40122;SDS011;25832;45.490;4.912;2022-12-18T10:34:54;22.33;;;13.77;;
40122;SDS011;25832;45.490;4.912;2022-12-18T10:37:23;29.05;;;14.70;;
40122;SDS011;25832;45.490;4.912;2022-12-18T10:40:24;22.53;;;13.23;;
40122;SDS011;25832;45.490;4.912;2022-12-18T10:42:43;25.88;;;13.48;;
40122;SDS011;25832;45.490;4.912;2022-12-18T10:45:16;27.70;;;14.38;;
40122;SDS011;25832;45.490;4.912;2022-12-18T10:47:45;28.38;;;14.05;;
40122;SDS011;25832;45.490;4.912;2022-12-18T10:50:33;23.55;;;12.73;;
40122;SDS011;25832;45.490;4.912;2022-12-18T10:53:03;27.65;;;14.27;;
40122;SDS011;25832;45.490;4.912;2022-12-18T10:55:37;23.90;;;12.90;;
40122;SDS011;25832;45.490;4.912;2022-12-18T11:01:01;24.45;;;12.52;;
40122;SDS011;25832;45.490;4.912;2022-12-18T11:03:45;24.20;;;13.00;;
40122;SDS011;25832;45.490;4.912;2022-12-18T11:06:23;19.83;;;10.45;;
40122;SDS011;25832;45.490;4.912;2022-12-18T11:11:47;17.15;;;10.82;;
40122;SDS011;25832;45.490;4.912;2022-12-18T11:14:18;20.95;;;9.30;;
40122;SDS011;25832;45.490;4.912;2022-12-18T11:16:49;23.60;;;10.95;;
40122;SDS011;25832;45.490;4.912;2022-12-18T11:19:34;21.35;;;10.85;;
40122;SDS011;25832;45.490;4.912;2022-12-18T11:22:03;21.15;;;10.50;;
40122;SDS011;25832;45.490;4.912;2022-12-18T11:25:02;17.38;;;9.77;;
40122;SDS011;25832;45.490;4.912;2022-12-18T11:27:37;15.93;;;9.30;;
40122;SDS011;25832;45.490;4.912;2022-12-18T11:30:08;14.48;;;9.40;;
40122;SDS011;25832;45.490;4.912;2022-12-18T11:32:45;15.23;;;9.70;;
40122;SDS011;25832;45.490;4.912;2022-12-18T11:35:20;33.08;;;20.20;;
40122;SDS011;25832;45.490;4.912;2022-12-18T11:37:54;38.53;;;21.95;;
40122;SDS011;25832;45.490;4.912;2022-12-18T11:40:35;23.88;;;13.20;;
40122;SDS011;25832;45.490;4.912;2022-12-18T11:43:06;16.63;;;8.77;;
40122;SDS011;25832;45.490;4.912;2022-12-18T11:45:43;14.38;;;8.50;;
40122;SDS011;25832;45.490;4.912;2022-12-18T11:51:02;16.52;;;8.10;;
40122;SDS011;25832;45.490;4.912;2022-12-18T11:53:34;14.55;;;8.25;;
40122;SDS011;25832;45.490;4.912;2022-12-18T12:09:33;14.02;;;7.55;;
40122;SDS011;25832;45.490;4.912;2022-12-18T12:15:13;15.98;;;7.63;;
40122;SDS011;25832;45.490;4.912;2022-12-18T12:18:07;12.85;;;6.82;;
40122;SDS011;25832;45.490;4.912;2022-12-18T12:20:53;11.80;;;7.65;;
40122;SDS011;25832;45.490;4.912;2022-12-18T12:26:36;10.85;;;6.30;;
40122;SDS011;25832;45.490;4.912;2022-12-18T12:34:55;13.50;;;6.32;;
40122;SDS011;25832;45.490;4.912;2022-12-18T12:40:04;10.30;;;5.78;;
40122;SDS011;25832;45.490;4.912;2022-12-18T12:42:34;9.07;;;5.85;;
40122;SDS011;25832;45.490;4.912;2022-12-18T12:45:48;11.25;;;5.35;;
40122;SDS011;25832;45.490;4.912;2022-12-18T12:48:38;12.05;;;5.80;;
40122;SDS011;25832;45.490;4.912;2022-12-18T12:51:35;8.38;;;4.70;;
40122;SDS011;25832;45.490;4.912;2022-12-18T12:54:06;9.93;;;5.05;;
40122;SDS011;25832;45.490;4.912;2022-12-18T12:56:44;7.38;;;4.47;;
40122;SDS011;25832;45.490;4.912;2022-12-18T12:59:26;7.47;;;5.15;;
40122;SDS011;25832;45.490;4.912;2022-12-18T13:02:04;7.50;;;4.72;;
40122;SDS011;25832;45.490;4.912;2022-12-18T13:04:51;11.10;;;5.40;;
40122;SDS011;25832;45.490;4.912;2022-12-18T13:12:51;9.82;;;4.75;;
40122;SDS011;25832;45.490;4.912;2022-12-18T13:17:48;13.32;;;5.75;;
40122;SDS011;25832;45.490;4.912;2022-12-18T13:20:32;9.98;;;4.60;;
40122;SDS011;25832;45.490;4.912;2022-12-18T13:22:59;8.35;;;4.65;;
40122;SDS011;25832;45.490;4.912;2022-12-18T13:25:35;8.30;;;4.78;;
40122;SDS011;25832;45.490;4.912;2022-12-18T13:28:04;6.47;;;3.47;;
40122;SDS011;25832;45.490;4.912;2022-12-18T13:35:59;8.13;;;3.17;;
40122;SDS011;25832;45.490;4.912;2022-12-18T13:38:35;10.73;;;5.38;;
40122;SDS011;25832;45.490;4.912;2022-12-18T13:41:02;10.05;;;3.53;;
40122;SDS011;25832;45.490;4.912;2022-12-18T13:43:50;7.38;;;3.05;;
40122;SDS011;25832;45.490;4.912;2022-12-18T13:46:41;6.03;;;3.03;;
40122;SDS011;25832;45.490;4.912;2022-12-18T13:51:39;6.03;;;2.95;;
40122;SDS011;25832;45.490;4.912;2022-12-18T13:54:44;10.02;;;3.35;;
40122;SDS011;25832;45.490;4.912;2022-12-18T14:00:28;7.95;;;2.70;;
40122;SDS011;25832;45.490;4.912;2022-12-18T14:02:55;5.57;;;2.45;;
40122;SDS011;25832;45.490;4.912;2022-12-18T14:05:23;6.50;;;2.60;;
40122;SDS011;25832;45.490;4.912;2022-12-18T14:08:04;5.18;;;2.72;;
40122;SDS011;25832;45.490;4.912;2022-12-18T14:10:33;6.35;;;2.35;;
40122;SDS011;25832;45.490;4.912;2022-12-18T14:13:02;3.80;;;2.42;;
40122;SDS011;25832;45.490;4.912;2022-12-18T14:15:35;7.88;;;2.58;;
40122;SDS011;25832;45.490;4.912;2022-12-18T14:20:55;4.43;;;2.25;;
40122;SDS011;25832;45.490;4.912;2022-12-18T14:25:57;6.25;;;2.08;;
40122;SDS011;25832;45.490;4.912;2022-12-18T14:28:23;6.90;;;2.50;;
40122;SDS011;25832;45.490;4.912;2022-12-18T14:30:50;6.55;;;2.55;;
40122;SDS011;25832;45.490;4.912;2022-12-18T14:38:36;7.30;;;2.58;;
40122;SDS011;25832;45.490;4.912;2022-12-18T14:43:34;5.55;;;2.50;;
40122;SDS011;25832;45.490;4.912;2022-12-18T14:46:01;5.85;;;2.88;;
40122;SDS011;25832;45.490;4.912;2022-12-18T14:51:02;4.25;;;1.83;;
40122;SDS011;25832;45.490;4.912;2022-12-18T14:53:48;6.40;;;2.38;;
40122;SDS011;25832;45.490;4.912;2022-12-18T14:56:20;7.60;;;2.05;;
40122;SDS011;25832;45.490;4.912;2022-12-18T14:58:47;6.75;;;2.25;;
40122;SDS011;25832;45.490;4.912;2022-12-18T15:03:43;2.97;;;1.92;;
40122;SDS011;25832;45.490;4.912;2022-12-18T15:06:24;3.38;;;1.70;;
40122;SDS011;25832;45.490;4.912;2022-12-18T15:08:56;5.22;;;1.90;;
40122;SDS011;25832;45.490;4.912;2022-12-18T15:13:51;10.65;;;2.15;;
40122;SDS011;25832;45.490;4.912;2022-12-18T15:16:17;4.00;;;2.47;;
40122;SDS011;25832;45.490;4.912;2022-12-18T15:18:42;3.28;;;2.25;;
40122;SDS011;25832;45.490;4.912;2022-12-18T15:21:10;7.13;;;2.60;;
40122;SDS011;25832;45.490;4.912;2022-12-18T15:26:11;4.70;;;1.92;;
40122;SDS011;25832;45.490;4.912;2022-12-18T15:31:28;4.07;;;1.90;;
40122;SDS011;25832;45.490;4.912;2022-12-18T15:36:22;5.22;;;2.10;;
40122;SDS011;25832;45.490;4.912;2022-12-18T15:38:50;4.32;;;1.95;;
40122;SDS011;25832;45.490;4.912;2022-12-18T15:41:17;4.90;;;1.83;;
40122;SDS011;25832;45.490;4.912;2022-12-18T15:43:48;5.00;;;1.88;;
40122;SDS011;25832;45.490;4.912;2022-12-18T15:46:17;6.05;;;1.92;;
40122;SDS011;25832;45.490;4.912;2022-12-18T15:48:45;6.60;;;2.38;;
40122;SDS011;25832;45.490;4.912;2022-12-18T15:53:56;2.88;;;1.58;;
40122;SDS011;25832;45.490;4.912;2022-12-18T15:56:26;6.15;;;2.45;;
40122;SDS011;25832;45.490;4.912;2022-12-18T15:59:11;3.78;;;1.65;;
40122;SDS011;25832;45.490;4.912;2022-12-18T16:01:37;5.45;;;1.92;;
40122;SDS011;25832;45.490;4.912;2022-12-18T16:04:04;8.60;;;2.10;;
40122;SDS011;25832;45.490;4.912;2022-12-18T16:06:29;4.40;;;2.28;;
40122;SDS011;25832;45.490;4.912;2022-12-18T16:08:55;4.63;;;2.47;;
40122;SDS011;25832;45.490;4.912;2022-12-18T16:14:03;3.33;;;2.33;;
40122;SDS011;25832;45.490;4.912;2022-12-18T16:16:37;5.13;;;2.03;;
40122;SDS011;25832;45.490;4.912;2022-12-18T16:19:03;4.82;;;2.05;;
40122;SDS011;25832;45.490;4.912;2022-12-18T16:21:29;4.20;;;2.20;;
40122;SDS011;25832;45.490;4.912;2022-12-18T16:23:54;3.97;;;1.98;;
40122;SDS011;25832;45.490;4.912;2022-12-18T16:26:20;5.35;;;2.20;;
40122;SDS011;25832;45.490;4.912;2022-12-18T16:28:46;4.57;;;1.90;;
40122;SDS011;25832;45.490;4.912;2022-12-18T16:31:11;10.45;;;1.92;;
40122;SDS011;25832;45.490;4.912;2022-12-18T16:33:37;8.52;;;2.20;;
40122;SDS011;25832;45.490;4.912;2022-12-18T16:36:03;5.97;;;2.65;;
40122;SDS011;25832;45.490;4.912;2022-12-18T16:38:28;5.03;;;2.25;;
40122;SDS011;25832;45.490;4.912;2022-12-18T16:40:54;3.35;;;2.17;;
40122;SDS011;25832;45.490;4.912;2022-12-18T16:43:38;7.03;;;2.40;;
40122;SDS011;25832;45.490;4.912;2022-12-18T16:46:04;4.47;;;2.80;;
40122;SDS011;25832;45.490;4.912;2022-12-18T16:48:30;4.82;;;2.00;;
40122;SDS011;25832;45.490;4.912;2022-12-18T16:51:00;3.75;;;1.95;;
40122;SDS011;25832;45.490;4.912;2022-12-18T16:53:26;5.53;;;1.90;;
40122;SDS011;25832;45.490;4.912;2022-12-18T16:55:55;9.25;;;2.65;;
40122;SDS011;25832;45.490;4.912;2022-12-18T16:58:21;4.15;;;2.20;;
40122;SDS011;25832;45.490;4.912;2022-12-18T17:00:47;7.72;;;2.10;;
40122;SDS011;25832;45.490;4.912;2022-12-18T17:03:13;4.13;;;2.20;;
40122;SDS011;25832;45.490;4.912;2022-12-18T17:05:38;5.47;;;2.30;;
40122;SDS011;25832;45.490;4.912;2022-12-18T17:08:04;3.45;;;1.90;;